METAR AND TAF INFORMATION
METAR FOR LJLJ
ADDS - METARS form results

(0339 UTC 04 August 2021)
Data provider http://aviationweather.gov/metar/data/
 
METAR text: LJLJ 040330Z 26007KT 9999 FEW002 BKN100 16/15 Q1014 NOSIG
Conditions at: LJLJ (LJUBLJANA/BRNIK , SI) observed 0330 UTC 04 August 2021
Temperature: 16.0°C (61°F)
Dewpoint: 15.0°C (59°F) [RH = 94%]
Pressure (altimeter): 29.94 inches Hg (1014.0 mb)
Winds: from the W (260 degrees) at 8 MPH (7 knots; 3.6 m/s)
Visibility: 6 or more miles (10+ km)
Ceiling: 10000 feet AGL
Clouds: few clouds at 200 feet AGL
broken clouds at 10000 feet AGL
Weather: no significant weather observed at this time

METAR text: LJLJ 040300Z 26005KT 9999 -SHRA FEW035TCU BKN100 16/16 Q1014 NOSIG
Conditions at: LJLJ (LJUBLJANA/BRNIK , SI) observed 0300 UTC 04 August 2021
Temperature: 16.0°C (61°F)
Dewpoint: 16.0°C (61°F) [RH = 100%]
Pressure (altimeter): 29.94 inches Hg (1014.0 mb)
Winds: from the W (260 degrees) at 6 MPH (5 knots; 2.6 m/s)
Visibility: 6 or more miles (10+ km)
Ceiling: 10000 feet AGL
Clouds: few clouds at 3500 feet AGL
broken clouds at 10000 feet AGL
Weather: -SHRA  (light rain showers)

Forecast for: LJLJ (LJUBLJANA/BRNIK , SI)
Text: TAF LJLJ 032300Z 0400/0424 VRB02KT 9999 FEW035
Forecast period: 0000 UTC 04 August 2021 to 0000 UTC 05 August 2021
Forecast type: FROM: standard forecast or significant change
Winds: variable direction winds at 2 MPH (2 knots; 1.0 m/s)
Visibility: 6 or more miles (10+ km)
Ceiling: at least 12,000 feet AGL
Clouds: few clouds at 3500 feet AGL
Weather: no significant weather forecast for this period
Text: PROB30
Forecast period: 0000 to 1500 UTC 04 August 2021
Forecast type: TEMPORARY: The following changes expected for less than half the time period
Visibility: missing
Ceiling: 4000 feet AGL
Clouds: few clouds at 3500 feet AGL
broken clouds at 4000 feet AGL
Weather: SHRA  (rain showers)

 AIRPORT MAP

 RUNWAY INFORMATION

 AIRPORT FREQUENCIES
Type A/D Name APP Frequency 135.275 MHZ
Type ATIS Name also on VO Frequency 128.175 MHZ
Type GND Name Frequency 121.625 MHZ
Type HANDLING & Name Frequency 131.4 MHZ
Type TWR Name TWR Frequency 118 MHZ

 AIRPORT NEAR NAVIGATION AIDS
Type VOR-DME Name Dolsko Frequency 112700 KHZ
Type NDB Name Dolsko Frequency 328 KHZ
Type NDB Name Ljubljana Frequency 296 KHZ



2018 Air Astana Virtual Airline